Time;durP1;ratioP1;P1;durP2;ratioP2;P2;SDS_P1;SDS_P2;PMS_P1;PMS_P2;Temp;Humidity;BMP_temperature;BMP_pressure;BME280_temperature;BME280_humidity;BME280_pressure;Samples;Min_cycle;Max_cycle;Signal;HPM_P1;HPM_P2
2024/01/11 00:01:39;;;;;;;169.20;72.50;;;;;;;-5.01;61.90;100230.84;232403;201;139547;-57
2024/01/11 00:06:43;;;;;;;166.00;73.10;;;;;;;-4.87;61.83;100211.38;232309;200;139078;-55
2024/01/11 00:11:46;;;;;;;168.80;72.80;;;;;;;-4.74;61.72;100207.81;232279;201;153213;-57
2024/01/11 00:16:50;;;;;;;155.80;69.80;;;;;;;-4.62;61.44;100198.86;232245;201;138356;-57
2024/01/11 00:21:53;;;;;;;163.70;72.30;;;;;;;-4.53;61.38;100199.01;232404;200;138883;-56
2024/01/11 00:26:56;;;;;;;162.20;71.60;;;;;;;-4.47;61.15;100191.50;232124;201;152998;-57
2024/01/11 00:32:00;;;;;;;162.10;67.30;;;;;;;-4.38;61.03;100181.42;232341;201;138231;-55
2024/01/11 00:37:03;;;;;;;159.60;73.40;;;;;;;-4.27;60.78;100167.75;232366;204;138026;-57
2024/01/11 00:42:06;;;;;;;170.70;72.70;;;;;;;-4.25;60.52;100161.71;232354;200;154033;-55
2024/01/11 00:47:10;;;;;;;150.00;68.80;;;;;;;-4.24;60.37;100151.34;232188;201;138211;-55
2024/01/11 00:52:13;;;;;;;171.00;77.30;;;;;;;-4.20;60.39;100157.45;232313;204;138415;-54
2024/01/11 00:57:17;;;;;;;165.60;73.60;;;;;;;-4.27;59.80;100152.85;232360;196;154471;-56
2024/01/11 01:02:24;;;;;;;170.00;74.60;;;;;;;-4.42;59.76;100166.64;232299;201;137860;-55
2024/01/11 01:07:27;;;;;;;169.10;72.30;;;;;;;-4.47;60.16;100163.10;232330;198;138033;-54
2024/01/11 01:12:30;;;;;;;146.60;65.30;;;;;;;-4.45;59.95;100163.48;232277;197;155437;-56
2024/01/11 01:17:34;;;;;;;136.20;59.60;;;;;;;-4.43;60.38;100159.70;232316;204;137511;-55
2024/01/11 01:22:37;;;;;;;142.20;62.50;;;;;;;-4.30;60.30;100150.90;232156;204;138202;-56
2024/01/11 01:27:40;;;;;;;149.30;60.40;;;;;;;-4.18;60.20;100154.55;232379;196;153390;-56
2024/01/11 01:32:44;;;;;;;139.20;60.00;;;;;;;-4.08;59.98;100144.13;232371;204;138444;-56
2024/01/11 01:37:47;;;;;;;150.70;60.00;;;;;;;-3.98;59.65;100135.77;232412;201;138016;-56
2024/01/11 01:42:58;;;;;;;147.30;62.50;;;;;;;-3.95;59.46;100131.15;232276;204;153466;-56
2024/01/11 01:48:02;;;;;;;151.60;64.40;;;;;;;-3.92;59.29;100130.49;232245;200;139394;-56
2024/01/11 01:53:07;;;;;;;146.30;64.10;;;;;;;-3.90;59.25;100131.22;232255;204;138568;-57
2024/01/11 01:58:10;;;;;;;149.60;65.10;;;;;;;-3.88;58.95;100130.73;232285;204;153665;-57
2024/01/11 02:03:15;;;;;;;138.80;59.00;;;;;;;-3.90;58.95;100129.30;232372;200;138244;-54
2024/01/11 02:08:21;;;;;;;146.30;60.50;;;;;;;-3.93;58.91;100132.75;232503;204;138145;-56
2024/01/11 02:13:24;;;;;;;138.20;55.00;;;;;;;-3.93;58.84;100116.79;232297;204;153802;-57
2024/01/11 02:18:28;;;;;;;133.20;57.40;;;;;;;-3.89;58.74;100109.05;232137;197;137985;-55
2024/01/11 02:23:32;;;;;;;135.90;56.50;;;;;;;-3.84;58.72;100109.29;232249;204;138427;-56
2024/01/11 02:28:35;;;;;;;133.40;55.10;;;;;;;-3.81;58.57;100101.86;232296;201;153330;-57
2024/01/11 02:33:39;;;;;;;132.00;58.90;;;;;;;-3.78;58.37;100086.64;232342;204;141581;-55
2024/01/11 02:38:43;;;;;;;117.10;52.90;;;;;;;-3.78;58.34;100071.04;232365;200;138088;-57
2024/01/11 02:43:49;;;;;;;135.70;57.10;;;;;;;-3.81;58.25;100077.77;232392;204;153894;-54
2024/01/11 02:48:52;;;;;;;119.90;53.80;;;;;;;-3.76;58.16;100076.79;232080;200;139243;-55
2024/01/11 02:53:56;;;;;;;124.30;55.40;;;;;;;-3.77;58.14;100074.36;232308;201;138957;-55
2024/01/11 02:58:59;;;;;;;117.00;53.60;;;;;;;-3.83;58.07;100074.63;232232;201;153495;-57
2024/01/11 03:04:04;;;;;;;107.20;46.80;;;;;;;-3.86;58.13;100071.64;232330;204;138281;-54
2024/01/11 03:09:07;;;;;;;97.80;44.90;;;;;;;-3.84;58.26;100071.15;232212;204;138539;-54
2024/01/11 03:14:10;;;;;;;95.40;42.40;;;;;;;-3.80;58.15;100064.61;232249;202;153211;-55
2024/01/11 03:19:14;;;;;;;99.00;47.20;;;;;;;-3.80;58.08;100058.89;232261;204;137490;-56
2024/01/11 03:24:17;;;;;;;122.90;53.10;;;;;;;-3.79;58.04;100052.65;232258;197;138955;-55
2024/01/11 03:29:20;;;;;;;131.50;57.90;;;;;;;-3.86;57.88;100056.21;232356;200;153059;-57
2024/01/11 03:34:23;;;;;;;140.40;59.20;;;;;;;-3.95;57.88;100057.30;232143;204;137756;-56
2024/01/11 03:39:26;;;;;;;146.90;63.60;;;;;;;-4.06;57.80;100048.15;232336;200;137547;-55
2024/01/11 03:44:31;;;;;;;148.80;67.70;;;;;;;-4.14;57.79;100044.41;232270;204;153728;-54
2024/01/11 03:49:34;;;;;;;151.90;67.90;;;;;;;-4.20;57.69;100050.21;232414;197;138727;-55
2024/01/11 03:54:38;;;;;;;159.50;68.20;;;;;;;-4.35;57.60;100047.74;232268;204;138416;-55
2024/01/11 03:59:41;;;;;;;161.90;68.50;;;;;;;-4.52;57.95;100057.91;232373;201;153125;-57
2024/01/11 04:04:44;;;;;;;155.10;67.90;;;;;;;-4.60;58.27;100064.20;232299;203;139053;-56
2024/01/11 04:09:48;;;;;;;168.30;70.90;;;;;;;-4.55;58.21;100061.67;232342;204;138554;-56
2024/01/11 04:14:51;;;;;;;161.90;73.40;;;;;;;-4.59;58.11;100046.71;232338;200;153181;-55
2024/01/11 04:19:54;;;;;;;180.90;75.80;;;;;;;-4.61;57.89;100039.41;232365;200;138768;-55
2024/01/11 04:24:57;;;;;;;174.00;79.90;;;;;;;-4.71;57.97;100044.80;232378;200;138416;-55
2024/01/11 04:30:00;;;;;;;174.00;77.80;;;;;;;-4.87;58.23;100050.95;232319;204;155753;-55
2024/01/11 04:35:05;;;;;;;184.30;78.60;;;;;;;-4.96;58.48;100049.77;232164;204;141950;-56
2024/01/11 04:40:08;;;;;;;188.00;79.30;;;;;;;-5.02;58.65;100032.54;232396;200;138880;-56
2024/01/11 04:45:11;;;;;;;224.90;104.40;;;;;;;-5.03;59.68;100017.46;232216;203;153515;-55
2024/01/11 04:50:15;;;;;;;202.70;90.60;;;;;;;-5.01;59.15;100008.51;232499;201;138163;-56
2024/01/11 04:55:21;;;;;;;204.10;89.80;;;;;;;-5.09;59.23;100003.70;232285;203;138471;-55
2024/01/11 05:00:24;;;;;;;174.20;74.00;;;;;;;-5.15;59.37;99995.83;232327;204;152943;-57
2024/01/11 05:05:27;;;;;;;176.80;74.90;;;;;;;-5.25;59.33;99985.29;232273;197;138329;-57
2024/01/11 05:10:30;;;;;;;170.90;74.60;;;;;;;-5.28;59.40;99988.16;232427;204;140379;-56
2024/01/11 05:15:34;;;;;;;151.50;68.30;;;;;;;-5.27;59.61;99977.98;232341;200;153759;-57
2024/01/11 05:20:38;;;;;;;171.20;69.40;;;;;;;-5.25;59.79;99957.26;232413;204;141926;-56
2024/01/11 05:25:41;;;;;;;149.90;61.60;;;;;;;-5.14;59.81;99948.79;232446;204;138754;-56
2024/01/11 05:30:44;;;;;;;122.60;54.30;;;;;;;-5.13;59.62;99962.81;232081;201;153199;-57
2024/01/11 05:35:47;;;;;;;108.90;46.90;;;;;;;-5.10;59.81;99950.76;232255;204;137342;-56
2024/01/11 05:40:51;;;;;;;97.00;44.90;;;;;;;-5.06;59.85;99953.39;232223;204;138981;-56
2024/01/11 05:45:54;;;;;;;102.30;46.90;;;;;;;-4.99;59.87;99955.08;232318;201;153224;-56
2024/01/11 05:50:57;;;;;;;99.60;45.50;;;;;;;-4.95;59.69;99960.15;232238;204;139315;-56
2024/01/11 05:56:00;;;;;;;96.70;42.60;;;;;;;-4.93;59.67;99947.03;232482;204;141957;-57
2024/01/11 06:01:04;;;;;;;90.10;40.90;;;;;;;-4.90;59.65;99933.23;232303;204;153833;-54
2024/01/11 06:06:08;;;;;;;88.90;39.60;;;;;;;-4.83;59.48;99945.61;232282;204;137248;-56
2024/01/11 06:11:12;;;;;;;88.80;41.00;;;;;;;-4.81;59.44;99963.83;232345;200;138246;-57
2024/01/11 06:16:15;;;;;;;80.40;39.50;;;;;;;-4.80;59.45;99979.23;232377;196;153870;-54
2024/01/11 06:21:18;;;;;;;81.60;38.20;;;;;;;-4.81;59.37;99977.49;232322;204;138044;-55
2024/01/11 06:26:23;;;;;;;75.90;35.70;;;;;;;-4.76;59.27;99967.19;232411;204;137389;-54
2024/01/11 06:31:26;;;;;;;72.70;33.30;;;;;;;-4.72;59.16;99964.29;232395;203;155065;-55
2024/01/11 06:36:30;;;;;;;64.10;29.90;;;;;;;-4.68;59.09;99938.73;232237;204;138357;-54
2024/01/11 06:41:33;;;;;;;61.90;28.30;;;;;;;-4.70;59.08;99928.66;232325;201;138105;-56
2024/01/11 06:46:39;;;;;;;53.90;25.90;;;;;;;-4.71;59.27;99905.63;232413;201;153439;-57
2024/01/11 06:51:42;;;;;;;;;;;;;;;-4.55;58.95;99880.91;232278;204;138406;-56
2024/01/11 06:56:45;;;;;;;47.00;22.40;;;;;;;-4.41;58.62;99862.73;232459;204;138061;-58
2024/01/11 07:01:49;;;;;;;40.70;18.40;;;;;;;-4.20;58.03;99852.38;232544;201;153509;-54
2024/01/11 07:06:52;;;;;;;38.50;17.90;;;;;;;-3.94;57.34;99845.35;232244;204;138060;-54
2024/01/11 07:11:55;;;;;;;35.90;17.90;;;;;;;-3.66;56.80;99837.63;232399;204;138338;-54
2024/01/11 07:16:59;;;;;;;37.10;17.70;;;;;;;-3.41;56.10;99829.31;232231;198;153115;-53
2024/01/11 07:22:02;;;;;;;34.20;15.00;;;;;;;-3.25;55.43;99831.34;232346;204;137646;-53
2024/01/11 07:27:06;;;;;;;29.70;14.40;;;;;;;-3.12;55.06;99846.16;232349;203;139168;-55
2024/01/11 07:32:10;;;;;;;31.10;15.30;;;;;;;-2.98;55.06;99837.74;232394;204;153727;-56
2024/01/11 07:37:13;;;;;;;36.80;17.30;;;;;;;-2.86;54.87;99835.20;232148;204;138784;-56
2024/01/11 07:42:16;;;;;;;39.00;18.60;;;;;;;-2.82;55.09;99834.35;232334;201;138351;-53
2024/01/11 07:47:20;;;;;;;38.50;18.40;;;;;;;-2.72;55.47;99823.64;232335;201;152145;-55
2024/01/11 07:52:23;;;;;;;33.40;16.30;;;;;;;-2.64;55.65;99824.36;231938;204;137274;-55
2024/01/11 07:57:27;;;;;;;30.80;15.50;;;;;;;-2.54;55.75;99825.42;232201;203;138315;-56
2024/01/11 08:02:30;;;;;;;32.70;16.10;;;;;;;-2.46;55.84;99811.55;232279;201;153933;-55
2024/01/11 08:07:35;;;;;;;29.10;15.30;;;;;;;-2.31;55.80;99817.34;232218;201;138770;-54
2024/01/11 08:12:39;;;;;;;36.80;17.00;;;;;;;-2.13;55.53;99825.72;232436;200;138692;-55
2024/01/11 08:17:46;;;;;;;34.40;16.90;;;;;;;-2.01;55.45;99821.73;231920;200;154344;-53
2024/01/11 08:22:51;;;;;;;32.00;15.10;;;;;;;-1.82;55.18;99804.02;232182;200;137284;-54
2024/01/11 08:27:55;;;;;;;29.50;14.70;;;;;;;-1.66;54.92;99802.63;232267;204;137590;-55
2024/01/11 08:32:58;;;;;;;27.40;14.20;;;;;;;-1.52;54.82;99810.44;232145;204;153797;-56
2024/01/11 08:38:03;;;;;;;128.60;91.60;;;;;;;-1.44;54.65;99818.78;232330;204;137810;-55
2024/01/11 08:43:06;;;;;;;36.00;18.10;;;;;;;-1.21;55.55;99823.63;232241;204;138234;-55
2024/01/11 08:48:10;;;;;;;24.40;12.80;;;;;;;-0.90;54.44;99817.29;232228;196;152954;-55
2024/01/11 08:53:15;;;;;;;21.90;11.70;;;;;;;-0.73;53.92;99808.34;232315;204;138060;-56
2024/01/11 08:58:19;;;;;;;20.50;11.30;;;;;;;-0.65;53.53;99801.86;232378;203;138266;-56
2024/01/11 09:03:22;;;;;;;20.60;11.60;;;;;;;-0.54;52.97;99797.09;232339;203;154060;-54
2024/01/11 09:08:26;;;;;;;25.10;12.80;;;;;;;-0.45;52.73;99802.81;232359;201;137300;-51
2024/01/11 09:13:29;;;;;;;23.30;13.30;;;;;;;-0.43;52.37;99808.02;232298;197;139329;-55
2024/01/11 09:18:33;;;;;;;30.10;14.20;;;;;;;-0.38;52.36;99807.13;232221;203;153195;-56
2024/01/11 09:23:36;;;;;;;24.70;14.10;;;;;;;-0.32;52.11;99792.45;232292;200;139383;-55
2024/01/11 09:28:40;;;;;;;26.10;14.00;;;;;;;-0.26;52.23;99790.49;232272;200;137880;-57
2024/01/11 09:33:45;;;;;;;27.80;13.60;;;;;;;-0.17;52.26;99786.27;232320;200;153715;-55
2024/01/11 09:38:48;;;;;;;27.10;14.90;;;;;;;-0.16;51.93;99766.20;232260;203;138751;-55
2024/01/11 09:43:54;;;;;;;25.80;13.30;;;;;;;-0.04;52.11;99761.05;232324;204;136923;-56
2024/01/11 09:49:00;;;;;;;27.30;13.80;;;;;;;0.03;51.92;99771.98;232140;203;153560;-52
2024/01/11 09:54:04;;;;;;;25.00;13.40;;;;;;;0.06;51.30;99758.02;232257;201;137523;-55
2024/01/11 09:59:09;;;;;;;28.20;13.90;;;;;;;0.15;50.85;99746.23;232243;204;138177;-54
2024/01/11 10:04:16;;;;;;;26.20;12.40;;;;;;;0.31;50.25;99741.21;232281;203;153337;-53
2024/01/11 10:09:19;;;;;;;28.20;13.60;;;;;;;0.37;50.17;99740.47;232320;204;137750;-55
2024/01/11 10:14:23;;;;;;;272.40;171.40;;;;;;;0.45;49.73;99732.70;232378;198;138203;-55
2024/01/11 10:19:26;;;;;;;25.30;14.20;;;;;;;0.52;49.25;99720.59;232293;201;153504;-54
2024/01/11 10:24:30;;;;;;;25.10;12.90;;;;;;;0.54;48.92;99709.75;232229;201;137586;-55
2024/01/11 10:29:36;;;;;;;26.40;12.80;;;;;;;0.49;48.22;99696.02;232317;204;142866;-55
2024/01/11 10:34:41;;;;;;;30.00;13.00;;;;;;;0.49;48.24;99692.00;232063;199;153878;-58
2024/01/11 10:39:46;;;;;;;28.50;13.30;;;;;;;0.51;48.38;99689.00;232181;204;138650;-58
2024/01/11 10:44:54;;;;;;;24.10;12.40;;;;;;;0.51;48.52;99698.79;232271;204;138366;-58
2024/01/11 10:50:01;;;;;;;27.10;12.60;;;;;;;0.52;48.34;99693.36;232330;201;154065;-60
2024/01/11 10:55:05;;;;;;;29.80;14.40;;;;;;;0.49;48.64;99678.55;232236;197;150260;-59
2024/01/11 11:00:11;;;;;;;26.40;14.00;;;;;;;0.46;48.58;99677.88;232293;204;138131;-57
2024/01/11 11:05:16;;;;;;;29.00;13.50;;;;;;;0.47;48.91;99666.01;232232;204;152873;-57
2024/01/11 11:10:21;;;;;;;28.20;14.20;;;;;;;0.50;49.11;99663.19;232249;203;137617;-58
2024/01/11 11:15:27;;;;;;;27.30;14.60;;;;;;;0.49;49.63;99651.49;232330;204;138497;-58
2024/01/11 11:20:32;;;;;;;29.40;14.40;;;;;;;0.47;50.09;99650.29;232308;201;156814;-58
2024/01/11 11:25:35;;;;;;;21.20;10.90;;;;;;;0.47;50.43;99638.95;232356;201;137941;-57
2024/01/11 11:30:41;;;;;;;33.20;15.60;;;;;;;0.47;50.15;99636.67;232163;198;137910;-58
2024/01/11 11:35:49;;;;;;;31.10;16.50;;;;;;;0.55;50.73;99621.75;232296;204;153730;-56
2024/01/11 11:40:54;;;;;;;28.10;13.40;;;;;;;0.60;49.82;99615.23;232156;204;138345;-58
2024/01/11 11:45:58;;;;;;;27.60;13.20;;;;;;;0.57;49.25;99614.04;232361;200;138093;-58
2024/01/11 11:51:12;;;;;;;21.80;11.40;;;;;;;0.56;49.22;99616.33;232044;204;155186;-57
2024/01/11 11:56:21;;;;;;;22.00;11.20;;;;;;;0.67;49.28;99616.88;232236;203;137779;-57
2024/01/11 12:01:25;;;;;;;22.90;10.90;;;;;;;0.79;48.85;99613.95;232201;203;137687;-55
2024/01/11 12:06:29;;;;;;;22.00;11.00;;;;;;;0.83;48.87;99613.16;232316;203;154252;-57
2024/01/11 12:11:33;;;;;;;20.70;11.20;;;;;;;0.85;48.60;99601.63;232259;204;138706;-57
2024/01/11 12:16:36;;;;;;;22.70;11.10;;;;;;;0.93;48.91;99587.71;232351;197;137413;-57
2024/01/11 12:21:39;;;;;;;25.10;11.90;;;;;;;1.00;48.81;99563.00;232065;204;153642;-58
2024/01/11 12:26:43;;;;;;;24.00;11.90;;;;;;;1.02;48.47;99558.78;232294;204;138069;-56
2024/01/11 12:31:47;;;;;;;25.40;13.00;;;;;;;1.09;48.43;99553.60;232326;204;138907;-56
2024/01/11 12:36:53;;;;;;;28.60;13.70;;;;;;;1.11;48.19;99544.48;232328;197;153472;-57
2024/01/11 12:41:57;;;;;;;32.20;14.10;;;;;;;1.11;48.55;99532.95;232145;203;137937;-57
2024/01/11 12:47:00;;;;;;;27.80;13.80;;;;;;;1.11;48.64;99529.10;232124;198;137566;-55
2024/01/11 12:52:04;;;;;;;32.80;15.20;;;;;;;1.13;48.80;99513.51;232225;204;153110;-56
2024/01/11 12:57:07;;;;;;;28.50;14.60;;;;;;;1.18;48.90;99518.33;232260;200;138341;-57
2024/01/11 13:02:13;;;;;;;32.40;16.00;;;;;;;1.14;49.21;99522.07;232474;204;137884;-56
2024/01/11 13:07:22;;;;;;;36.40;16.70;;;;;;;1.07;49.50;99522.34;232321;197;152974;-54
2024/01/11 13:12:26;;;;;;;32.00;15.70;;;;;;;1.00;49.79;99527.70;232150;204;138156;-56
2024/01/11 13:17:29;;;;;;;34.50;17.10;;;;;;;0.94;49.68;99527.61;232120;204;142028;-57
2024/01/11 13:22:32;;;;;;;33.10;16.90;;;;;;;0.92;50.00;99518.73;232118;204;153165;-56
2024/01/11 13:27:35;;;;;;;35.30;17.20;;;;;;;0.89;50.35;99516.16;232235;204;138070;-55
2024/01/11 13:32:38;;;;;;;34.70;16.60;;;;;;;0.96;50.35;99510.46;232303;200;137757;-57
2024/01/11 13:37:42;;;;;;;33.00;16.20;;;;;;;0.98;50.35;99506.61;232396;204;152427;-56
2024/01/11 13:42:46;;;;;;;40.10;18.50;;;;;;;1.02;50.42;99497.64;232282;201;137789;-56
2024/01/11 13:47:50;;;;;;;37.10;18.60;;;;;;;1.05;50.41;99498.09;232276;199;138458;-56
2024/01/11 13:52:54;;;;;;;39.90;19.60;;;;;;;1.10;50.67;99504.83;232216;197;153904;-56
2024/01/11 13:57:58;;;;;;;39.10;19.80;;;;;;;1.14;50.58;99508.77;231725;202;137512;-58
2024/01/11 14:03:03;;;;;;;38.70;19.00;;;;;;;1.12;50.58;99508.12;231914;205;142845;-58
2024/01/11 14:08:07;;;;;;;40.70;19.80;;;;;;;1.15;50.79;99507.20;232031;204;153293;-58
2024/01/11 14:13:11;;;;;;;40.50;19.20;;;;;;;1.11;50.92;99507.42;231845;201;138709;-58
2024/01/11 14:18:14;;;;;;;43.90;20.60;;;;;;;1.00;51.22;99512.85;232077;197;141924;-58
2024/01/11 14:23:18;;;;;;;41.30;20.40;;;;;;;0.96;51.71;99509.59;231964;202;154332;-57
2024/01/11 14:28:21;;;;;;;39.70;20.30;;;;;;;0.97;52.07;99510.62;231920;204;138322;-59
2024/01/11 14:33:26;;;;;;;43.10;21.70;;;;;;;1.03;52.04;99515.59;232018;201;138107;-56
2024/01/11 14:38:30;;;;;;;41.60;21.60;;;;;;;1.01;52.20;99532.05;232013;201;153344;-58
2024/01/11 14:43:34;;;;;;;46.20;23.30;;;;;;;0.92;52.75;99558.76;231997;204;138678;-58
2024/01/11 14:48:37;;;;;;;333.90;183.90;;;;;;;0.86;53.42;99581.52;231881;198;138366;-57
2024/01/11 14:53:41;;;;;;;55.00;27.20;;;;;;;0.99;54.29;99599.52;232053;201;154935;-58
2024/01/11 14:58:44;;;;;;;51.50;26.70;;;;;;;0.95;54.83;99604.98;231791;197;138273;-58
2024/01/11 15:03:47;;;;;;;50.90;26.60;;;;;;;0.86;55.50;99603.70;232056;198;137930;-57
2024/01/11 15:08:51;;;;;;;52.90;26.50;;;;;;;0.76;55.88;99598.44;232035;202;153130;-59
2024/01/11 15:13:54;;;;;;;59.40;31.20;;;;;;;0.68;56.37;99592.78;232085;204;138378;-58
2024/01/11 15:18:57;;;;;;;58.90;31.50;;;;;;;0.65;56.62;99593.34;231835;198;138390;-59
2024/01/11 15:24:01;;;;;;;60.10;31.70;;;;;;;0.58;57.05;99585.58;231764;198;155007;-57
2024/01/11 15:29:05;;;;;;;57.00;29.80;;;;;;;0.53;57.97;99588.95;231982;204;137737;-58
2024/01/11 15:34:09;;;;;;;70.40;35.30;;;;;;;0.45;59.39;99588.00;231901;198;138814;-57
2024/01/11 15:39:12;;;;;;;65.70;32.30;;;;;;;0.44;59.53;99584.88;232001;197;154050;-58
2024/01/11 15:44:29;;;;;;;62.30;30.90;;;;;;;0.39;60.03;99585.81;231841;205;137207;-58
2024/01/11 15:49:32;;;;;;;63.50;30.70;;;;;;;0.34;60.47;99587.80;231857;202;139082;-58
2024/01/11 15:54:36;;;;;;;60.00;29.80;;;;;;;0.27;60.94;99590.14;231874;196;155413;-59
2024/01/11 15:59:39;;;;;;;59.40;30.40;;;;;;;0.19;61.10;99595.80;231956;197;137696;-58
2024/01/11 16:04:44;;;;;;;56.80;29.40;;;;;;;0.15;61.44;99602.84;231886;198;138290;-59
2024/01/11 16:09:49;;;;;;;60.30;29.30;;;;;;;0.17;61.78;99596.54;232079;204;153706;-57
2024/01/11 16:14:56;;;;;;;58.00;28.60;;;;;;;0.18;62.03;99597.05;232038;204;138081;-59
2024/01/11 16:20:00;;;;;;;64.50;31.00;;;;;;;0.13;62.68;99597.27;232028;202;138471;-58
2024/01/11 16:25:04;;;;;;;61.00;31.00;;;;;;;0.11;62.98;99603.92;231953;203;154559;-57
2024/01/11 16:30:07;;;;;;;54.70;29.40;;;;;;;0.10;63.35;99608.83;231849;197;138645;-56
2024/01/11 16:35:11;;;;;;;53.50;28.80;;;;;;;0.02;63.70;99601.73;231954;205;137880;-59
2024/01/11 16:40:14;;;;;;;56.10;28.80;;;;;;;-0.06;64.15;99595.73;231885;198;153660;-55
2024/01/11 16:45:18;;;;;;;56.60;29.50;;;;;;;-0.10;64.39;99594.20;232077;204;137432;-59
2024/01/11 16:50:21;;;;;;;55.80;28.40;;;;;;;-0.21;64.76;99586.64;231940;197;138792;-58
2024/01/11 16:55:25;;;;;;;52.60;28.30;;;;;;;-0.29;65.27;99590.02;231836;204;153426;-58
2024/01/11 17:00:28;;;;;;;55.70;27.60;;;;;;;-0.36;65.42;99586.61;232017;202;137969;-55
2024/01/11 17:05:35;;;;;;;54.40;28.50;;;;;;;-0.33;65.37;99582.04;231698;204;139002;-56
2024/01/11 17:10:39;;;;;;;330.90;181.60;;;;;;;-0.31;65.26;99586.21;231962;204;153836;-55
2024/01/11 17:15:42;;;;;;;61.90;32.80;;;;;;;-0.17;65.31;99585.39;231924;198;138093;-57
2024/01/11 17:20:46;;;;;;;51.70;28.60;;;;;;;-0.23;64.94;99587.36;232035;201;138334;-57
2024/01/11 17:25:49;;;;;;;55.50;28.90;;;;;;;-0.30;65.02;99584.98;232027;198;154676;-57
2024/01/11 17:30:53;;;;;;;52.70;28.80;;;;;;;-0.32;65.00;99586.56;231846;198;143225;-56
2024/01/11 17:35:57;;;;;;;56.60;29.30;;;;;;;-0.38;64.94;99600.05;231874;198;137900;-55
2024/01/11 17:41:00;;;;;;;52.10;27.30;;;;;;;-0.37;65.13;99607.20;232048;201;155915;-55
2024/01/11 17:46:04;;;;;;;55.80;29.50;;;;;;;-0.38;65.12;99615.90;231967;204;141748;-56
2024/01/11 17:51:16;;;;;;;58.30;29.70;;;;;;;-0.32;65.28;99618.82;231528;202;140799;-55
2024/01/11 17:56:20;;;;;;;52.20;27.70;;;;;;;-0.26;65.41;99618.59;231432;199;153314;-58
2024/01/11 18:01:26;;;;;;;49.00;27.20;;;;;;;-0.25;65.30;99622.42;231881;199;137937;-58
2024/01/11 18:06:31;;;;;;;55.50;27.70;;;;;;;-0.33;65.43;99621.60;232042;201;138432;-58
2024/01/11 18:11:35;;;;;;;51.70;27.50;;;;;;;-0.35;65.52;99622.16;232102;204;153999;-59
2024/01/11 18:16:38;;;;;;;50.00;26.60;;;;;;;-0.32;65.48;99619.70;231686;201;138124;-57
2024/01/11 18:21:41;;;;;;;49.20;27.60;;;;;;;-0.31;65.42;99618.10;231815;202;137630;-58
2024/01/11 18:26:44;;;;;;;53.80;27.90;;;;;;;-0.31;65.57;99616.19;231761;198;153023;-58
2024/01/11 18:31:48;;;;;;;49.70;26.90;;;;;;;-0.20;65.39;99616.09;231843;198;138158;-58
2024/01/11 18:36:51;;;;;;;401.40;249.90;;;;;;;-0.22;66.14;99609.84;231635;199;138892;-58
2024/01/11 18:41:57;;;;;;;61.30;32.40;;;;;;;0.17;67.04;99601.25;231735;198;153887;-59
2024/01/11 18:47:01;;;;;;;53.50;28.80;;;;;;;0.16;64.98;99605.27;231711;205;264512;-57
2024/01/11 18:52:05;;;;;;;56.60;27.90;;;;;;;0.04;64.95;99611.33;231775;198;142363;-60
2024/01/11 18:57:10;;;;;;;47.80;27.40;;;;;;;-0.01;65.26;99612.77;231358;198;153958;-58
2024/01/11 19:02:13;;;;;;;52.90;26.80;;;;;;;0.01;65.65;99608.74;232005;198;138253;-59
2024/01/11 19:07:17;;;;;;;52.60;27.30;;;;;;;-0.09;66.12;99610.41;231803;202;137641;-58
2024/01/11 19:12:20;;;;;;;50.10;24.90;;;;;;;-0.14;66.68;99623.53;231681;199;153283;-59
2024/01/11 19:17:23;;;;;;;51.40;26.10;;;;;;;-0.14;67.06;99614.13;231735;197;138048;-59
2024/01/11 19:22:26;;;;;;;51.30;26.80;;;;;;;-0.15;67.46;99607.16;231862;202;136933;-60
2024/01/11 19:27:30;;;;;;;53.80;29.00;;;;;;;-0.18;67.88;99606.32;231573;205;153704;-60
2024/01/11 19:32:35;;;;;;;49.00;26.30;;;;;;;-0.21;68.04;99614.36;231759;199;137803;-59
2024/01/11 19:37:39;;;;;;;48.30;26.00;;;;;;;-0.22;68.20;99612.80;231885;198;138314;-59
2024/01/11 19:42:42;;;;;;;53.20;31.30;;;;;;;-0.24;68.53;99606.38;231710;198;152974;-59
2024/01/11 19:47:46;;;;;;;62.30;32.90;;;;;;;-0.08;68.87;99604.83;231910;198;137529;-58
2024/01/11 19:52:49;;;;;;;51.40;27.80;;;;;;;-0.03;67.90;99604.95;231789;197;137600;-59
2024/01/11 19:57:53;;;;;;;46.60;25.00;;;;;;;-0.02;67.81;99604.41;231708;205;153815;-59
2024/01/11 20:02:57;;;;;;;46.00;24.10;;;;;;;0.03;67.66;99597.22;231773;204;138325;-59
2024/01/11 20:08:03;;;;;;;252.80;165.90;;;;;;;0.14;67.54;99602.67;231967;198;138691;-59
2024/01/11 20:13:06;;;;;;;49.40;27.30;;;;;;;0.24;67.51;99593.66;231855;202;152887;-58
2024/01/11 20:18:10;;;;;;;49.10;24.90;;;;;;;0.23;67.23;99594.55;231920;204;138250;-59
2024/01/11 20:23:13;;;;;;;48.60;27.00;;;;;;;0.17;67.32;99597.23;232168;204;137571;-59
2024/01/11 20:28:17;;;;;;;46.00;25.80;;;;;;;0.15;67.35;99607.36;232010;202;153899;-58
2024/01/11 20:33:20;;;;;;;44.00;24.90;;;;;;;0.13;67.32;99613.50;232233;198;137685;-58
2024/01/11 20:38:25;;;;;;;49.90;26.10;;;;;;;0.09;67.44;99616.34;231700;202;137968;-58
2024/01/11 20:43:29;;;;;;;45.30;25.10;;;;;;;0.04;67.58;99621.45;231905;198;153970;-58
2024/01/11 20:48:32;;;;;;;46.60;26.80;;;;;;;0.01;67.69;99617.48;231498;201;138695;-58
2024/01/11 20:53:36;;;;;;;46.70;24.90;;;;;;;-0.02;67.93;99633.19;231798;205;138310;-56
2024/01/11 20:58:43;;;;;;;47.70;26.40;;;;;;;-0.02;68.00;99638.59;231857;198;154483;-56
2024/01/11 21:03:46;;;;;;;44.60;25.10;;;;;;;-0.08;68.10;99646.16;231750;198;137814;-56
2024/01/11 21:08:50;;;;;;;47.50;27.00;;;;;;;-0.08;68.17;99640.40;231679;205;138616;-55
2024/01/11 21:13:53;;;;;;;613.80;420.40;;;;;;;-0.01;69.16;99639.10;232048;201;153378;-57
2024/01/11 21:18:57;;;;;;;50.40;28.60;;;;;;;0.29;69.16;99642.83;231779;202;138144;-58
2024/01/11 21:24:01;;;;;;;44.70;26.10;;;;;;;0.44;67.80;99652.09;231839;205;138482;-56
2024/01/11 21:29:04;;;;;;;48.30;25.70;;;;;;;0.37;67.42;99650.06;231896;197;153199;-56
2024/01/11 21:34:08;;;;;;;50.70;26.50;;;;;;;0.36;67.50;99661.06;231906;202;138562;-56
2024/01/11 21:39:12;;;;;;;48.30;25.90;;;;;;;0.35;67.61;99666.31;231830;202;141490;-58
2024/01/11 21:44:15;;;;;;;45.20;24.80;;;;;;;0.25;68.04;99662.23;231969;201;154363;-58
2024/01/11 21:49:18;;;;;;;44.00;24.20;;;;;;;0.19;68.12;99673.11;231802;198;138282;-45
2024/01/11 21:54:22;;;;;;;145.50;80.20;;;;;;;0.61;72.08;99668.63;231843;198;138381;-56
2024/01/11 21:59:26;;;;;;;52.30;29.20;;;;;;;0.86;68.59;99674.10;231826;198;153110;-57
2024/01/11 22:04:29;;;;;;;45.30;25.60;;;;;;;0.70;67.57;99677.61;231581;202;138756;-56
2024/01/11 22:09:33;;;;;;;48.00;26.30;;;;;;;0.49;67.70;99677.50;231735;198;137986;-58
2024/01/11 22:14:38;;;;;;;46.40;25.60;;;;;;;0.35;68.11;99680.44;231775;199;153945;-58
2024/01/11 22:19:41;;;;;;;46.20;25.20;;;;;;;0.25;68.35;99673.92;231907;199;139161;-56
2024/01/11 22:24:44;;;;;;;40.70;23.70;;;;;;;0.14;68.70;99672.63;231775;205;138417;-56
2024/01/11 22:29:48;;;;;;;42.40;24.10;;;;;;;0.08;68.85;99679.66;231826;198;154533;-58
2024/01/11 22:34:51;;;;;;;45.70;24.00;;;;;;;0.01;69.04;99689.15;231654;198;138410;-59
2024/01/11 22:39:55;;;;;;;38.20;22.20;;;;;;;-0.02;69.20;99696.33;231653;203;137861;-59
2024/01/11 22:44:58;;;;;;;39.90;23.30;;;;;;;-0.06;69.42;99692.53;231709;205;153281;-58
2024/01/11 22:50:03;;;;;;;41.80;21.90;;;;;;;-0.04;69.49;99690.94;232002;205;137850;-58
2024/01/11 22:55:07;;;;;;;44.10;21.50;;;;;;;-0.03;69.45;99688.13;231835;204;137375;-57
2024/01/11 23:00:24;;;;;;;40.70;21.50;;;;;;;0.03;69.34;99692.11;231825;203;153118;-60